createdAt,value
2019-06-26T00:03:25.638Z,72.56
2019-06-26T00:08:30.981Z,72.43
2019-06-26T00:13:36.363Z,73.05
2019-06-26T00:18:44.072Z,72.21
2019-06-26T00:23:49.572Z,72.92
2019-06-26T00:28:55.159Z,72.66
2019-06-26T00:34:00.539Z,73.54
2019-06-26T00:39:07.805Z,73.62
2019-06-26T00:44:13.449Z,72.60
2019-06-26T00:49:18.958Z,72.66
2019-06-26T00:54:24.309Z,73.23
2019-06-26T00:59:29.691Z,73.57
2019-06-26T01:04:38.158Z,73.23
2019-06-26T01:09:43.539Z,73.11
2019-06-26T01:14:48.974Z,73.35
2019-06-26T01:19:54.206Z,73.28
2019-06-26T01:25:00.505Z,73.83
2019-06-26T01:30:07.640Z,73.84
2019-06-26T01:35:13.834Z,74.28
2019-06-26T01:40:19.139Z,73.90
2019-06-26T01:45:24.441Z,74.00
2019-06-26T01:50:29.663Z,74.58
2019-06-26T01:55:35.157Z,77.21
2019-06-26T02:00:44.333Z,77.24
2019-06-26T02:05:49.761Z,75.98
2019-06-26T02:10:55.222Z,75.44
2019-06-26T02:16:00.717Z,75.97
2019-06-26T02:21:06.144Z,76.96
2019-06-26T02:26:11.543Z,76.75
2019-06-26T02:31:16.890Z,75.80
2019-06-26T02:36:22.165Z,76.10
2019-06-26T02:41:27.553Z,76.74
2019-06-26T02:46:32.794Z,76.62
2019-06-26T02:51:38.442Z,75.56
2019-06-26T02:56:43.832Z,76.13
2019-06-26T03:01:49.185Z,76.44
2019-06-26T03:06:54.409Z,76.76
2019-06-26T03:12:00.247Z,76.79
2019-06-26T03:17:05.616Z,75.62
2019-06-26T03:22:11.055Z,76.14
2019-06-26T03:27:16.381Z,78.20
2019-06-26T03:32:21.792Z,78.49
2019-06-26T03:37:27.254Z,79.19
2019-06-26T03:42:32.957Z,78.31
2019-06-26T03:47:38.347Z,77.22
2019-06-26T03:52:43.700Z,76.83
2019-06-26T03:57:48.995Z,78.48
2019-06-26T04:02:54.452Z,78.76
2019-06-26T04:07:59.873Z,76.75
2019-06-26T04:13:06.208Z,76.29
2019-06-26T04:18:11.908Z,76.07
2019-06-26T04:23:17.492Z,76.01
2019-06-26T04:28:22.955Z,76.85
2019-06-26T04:33:28.176Z,75.86
2019-06-26T04:38:33.449Z,74.62
2019-06-26T04:43:38.822Z,75.13
2019-06-26T04:48:44.162Z,74.74
2019-06-26T04:53:49.571Z,73.97
2019-06-26T04:58:54.792Z,73.49
2019-06-26T05:04:00.500Z,73.49
2019-06-26T05:09:07.768Z,74.46
2019-06-26T05:14:13.200Z,73.70
2019-06-26T05:19:18.824Z,72.99
2019-06-26T05:24:24.417Z,73.34
2019-06-26T05:29:29.903Z,73.22
2019-06-26T05:34:35.192Z,72.46
2019-06-26T05:39:40.444Z,72.30
2019-06-26T05:44:46.759Z,71.66
2019-06-26T05:49:52.160Z,71.28
2019-06-26T05:54:57.614Z,71.14
2019-06-26T06:00:03.030Z,70.17
2019-06-26T06:05:08.958Z,69.43
2019-06-26T06:10:15.562Z,68.64
2019-06-26T06:15:20.901Z,67.95
2019-06-26T06:20:35.753Z,67.79
2019-06-26T06:25:40.981Z,66.99
2019-06-26T06:30:46.221Z,66.21
2019-06-26T06:35:52.812Z,65.86
2019-06-26T06:40:58.352Z,65.52
2019-06-26T06:46:03.746Z,64.73
2019-06-26T06:51:09.135Z,64.52
2019-06-26T06:56:16.424Z,63.68
2019-06-26T07:01:21.729Z,63.68
2019-06-26T07:06:27.218Z,62.96
2019-06-26T07:11:32.539Z,62.53
2019-06-26T07:16:38.202Z,62.82
2019-06-26T07:21:43.543Z,62.63
2019-06-26T07:26:49.878Z,61.40
2019-06-26T07:31:55.567Z,61.55
2019-06-26T07:37:00.823Z,61.53
2019-06-26T07:42:06.543Z,61.58
2019-06-26T07:47:22.499Z,61.44
2019-06-26T07:52:19.090Z,61.14
2019-06-26T07:57:24.531Z,60.10
2019-06-26T08:02:30.042Z,60.30
2019-06-26T08:07:35.776Z,59.88
2019-06-26T08:12:41.556Z,59.79
2019-06-26T08:17:59.754Z,59.08
2019-06-26T08:22:54.161Z,58.91
2019-06-26T08:27:59.572Z,58.22
2019-06-26T08:33:05.037Z,58.23
2019-06-26T08:38:15.356Z,57.69
2019-06-26T08:43:17.544Z,57.62
2019-06-26T08:48:38.845Z,55.73
2019-06-26T08:53:31.750Z,55.15
2019-06-26T08:58:37.265Z,56.01
2019-06-26T09:03:42.698Z,54.93
2019-06-26T09:08:49.269Z,54.46
2019-06-26T09:13:54.531Z,54.75
2019-06-26T09:18:59.901Z,53.92
2019-06-26T09:24:05.353Z,53.49
2019-06-26T09:29:10.898Z,53.41
2019-06-26T09:34:16.362Z,53.21
2019-06-26T09:39:21.626Z,52.27
2019-06-26T09:44:26.995Z,52.43
2019-06-26T09:49:32.508Z,51.69
2019-06-26T09:54:37.837Z,50.11
2019-06-26T09:59:46.823Z,50.99
2019-06-26T10:04:52.141Z,49.87
2019-06-26T10:09:57.491Z,48.69
2019-06-26T10:15:02.954Z,49.37
2019-06-26T10:20:09.321Z,48.75
2019-06-26T10:25:14.753Z,48.24
2019-06-26T10:30:20.365Z,46.90
2019-06-26T10:35:25.745Z,45.65
2019-06-26T10:40:31.190Z,45.29
2019-06-26T10:45:36.572Z,45.42
2019-06-26T10:50:49.809Z,43.90
2019-06-26T10:55:49.245Z,43.88
2019-06-26T11:00:54.626Z,42.58
2019-06-26T11:06:02.567Z,42.04
2019-06-26T11:11:07.977Z,41.58
2019-06-26T11:16:14.526Z,42.16
2019-06-26T11:21:20.821Z,41.65
2019-06-26T11:26:26.150Z,40.79
2019-06-26T11:31:31.492Z,41.18
2019-06-26T11:36:37.023Z,40.91
2019-06-26T11:41:42.719Z,41.57
2019-06-26T11:46:48.341Z,39.25
2019-06-26T11:51:54.067Z,39.98
2019-06-26T11:57:01.183Z,40.33
2019-06-26T12:02:08.287Z,39.42
2019-06-26T12:07:13.994Z,39.60
2019-06-26T12:12:19.577Z,39.29
2019-06-26T12:17:24.843Z,39.32
2019-06-26T12:22:30.089Z,37.38
2019-06-26T12:27:35.631Z,37.02
2019-06-26T12:32:42.554Z,35.94
2019-06-26T12:37:48.512Z,36.04
2019-06-26T12:42:55.705Z,35.07
2019-06-26T12:48:00.809Z,35.29
2019-06-26T12:53:06.234Z,35.23
2019-06-26T12:58:15.026Z,32.69
2019-06-26T13:03:18.997Z,32.12
2019-06-26T13:08:24.299Z,30.52
2019-06-26T13:13:30.511Z,31.45
2019-06-26T13:18:36.190Z,31.28
2019-06-26T13:23:41.495Z,31.07
2019-06-26T13:28:47.123Z,30.64
2019-06-26T13:33:52.872Z,30.41
2019-06-26T13:38:58.280Z,30.09
2019-06-26T13:44:03.985Z,28.77
2019-06-26T13:49:09.372Z,28.42
2019-06-26T13:54:14.896Z,28.34
2019-06-26T13:59:22.328Z,28.15
2019-06-26T14:04:27.541Z,28.39
2019-06-26T14:09:33.502Z,27.89
2019-06-26T14:14:56.206Z,27.77
2019-06-26T14:19:46.876Z,29.15
2019-06-26T14:24:54.216Z,28.82
2019-06-26T14:29:59.436Z,28.07
2019-06-26T14:35:05.162Z,28.27
2019-06-26T14:40:10.947Z,27.86
2019-06-26T14:45:16.484Z,27.86
2019-06-26T14:50:23.017Z,27.90
2019-06-26T14:55:28.390Z,28.44
2019-06-26T15:00:33.994Z,27.53
2019-06-26T15:05:40.593Z,27.12
2019-06-26T15:10:46.015Z,26.15
2019-06-26T15:15:54.640Z,26.47
2019-06-26T15:20:58.644Z,26.19
2019-06-26T15:26:04.361Z,25.91
2019-06-26T15:31:10.141Z,25.56
2019-06-26T15:36:15.503Z,25.14
2019-06-26T15:41:21.091Z,25.05
2019-06-26T15:46:30.532Z,25.41
2019-06-26T15:51:36.959Z,25.86
2019-06-26T15:56:42.305Z,25.38
2019-06-26T16:01:47.754Z,27.33
2019-06-26T16:06:53.092Z,28.01
2019-06-26T16:11:59.064Z,27.38
2019-06-26T16:17:09.605Z,28.78
2019-06-26T16:22:31.203Z,31.61
2019-06-26T16:27:23.174Z,33.34
2019-06-26T16:32:28.546Z,34.22
2019-06-26T16:37:33.893Z,35.90
2019-06-26T16:42:39.599Z,36.38
2019-06-26T16:47:45.733Z,37.63
2019-06-26T16:52:51.453Z,37.90
2019-06-26T16:57:56.794Z,39.25
2019-06-26T17:03:02.094Z,39.63
2019-06-26T17:08:07.532Z,40.76
2019-06-26T17:13:12.948Z,40.19
2019-06-26T17:18:18.631Z,41.48
2019-06-26T17:23:24.371Z,41.80
2019-06-26T17:28:29.648Z,40.85
2019-06-26T17:33:35.044Z,42.04
2019-06-26T17:38:40.415Z,41.96
2019-06-26T17:43:46.990Z,42.77
2019-06-26T17:48:52.349Z,42.89
2019-06-26T17:53:57.799Z,43.63
2019-06-26T17:59:03.205Z,44.22
2019-06-26T18:04:08.492Z,44.80
2019-06-26T18:09:13.896Z,45.56
2019-06-26T18:14:19.206Z,45.81
2019-06-26T18:19:24.949Z,46.34
2019-06-26T18:24:30.687Z,47.04
2019-06-26T18:29:36.429Z,47.33
2019-06-26T18:34:41.968Z,47.85
2019-06-26T18:39:47.320Z,48.02
2019-06-26T18:44:52.739Z,48.32
2019-06-26T18:50:02.175Z,48.46
2019-06-26T18:55:07.818Z,49.62
2019-06-26T19:00:15.806Z,49.93
2019-06-26T19:05:21.197Z,50.16
2019-06-26T19:10:26.625Z,50.36
2019-06-26T19:15:31.971Z,51.29
2019-06-26T19:20:37.324Z,51.26
2019-06-26T19:25:42.659Z,52.00
2019-06-26T19:30:48.438Z,52.19
2019-06-26T19:35:54.007Z,52.42
2019-06-26T19:40:59.323Z,52.50
2019-06-26T19:46:04.845Z,52.82
2019-06-26T19:51:10.478Z,53.13
2019-06-26T19:56:20.081Z,53.48
2019-06-26T20:01:24.047Z,54.13
2019-06-26T20:06:29.512Z,54.45
2019-06-26T20:11:37.376Z,54.36
2019-06-26T20:16:43.600Z,54.66
2019-06-26T20:21:49.863Z,54.68
2019-06-26T20:26:55.415Z,55.26
2019-06-26T20:32:01.108Z,55.45
2019-06-26T20:37:06.432Z,55.43
2019-06-26T20:42:11.992Z,55.81
2019-06-26T20:47:17.412Z,58.00
2019-06-26T20:52:22.859Z,58.15
2019-06-26T20:57:28.218Z,59.42
2019-06-26T21:02:33.965Z,59.62
2019-06-26T21:07:42.670Z,60.17
2019-06-26T21:12:48.083Z,59.83
2019-06-26T21:17:54.751Z,60.71
2019-06-26T21:23:00.033Z,61.26
2019-06-26T21:28:06.522Z,61.75
2019-06-26T21:33:12.018Z,61.83
2019-06-26T21:38:21.779Z,62.01
2019-06-26T21:43:27.175Z,62.85
2019-06-26T21:48:32.523Z,63.60
2019-06-26T21:53:37.909Z,63.39
2019-06-26T21:59:01.606Z,63.85
2019-06-26T22:04:25.973Z,64.36
2019-06-26T22:09:33.405Z,64.91
2019-06-26T22:14:40.756Z,64.96
2019-06-26T22:19:46.168Z,65.33
2019-06-26T22:24:51.771Z,65.81
2019-06-26T22:29:57.270Z,66.08
2019-06-26T22:35:03.368Z,67.25
2019-06-26T22:40:08.845Z,67.25
2019-06-26T22:45:14.616Z,67.49
2019-06-26T22:50:19.912Z,67.49
2019-06-26T22:55:25.246Z,67.20
2019-06-26T23:00:30.614Z,66.95
2019-06-26T23:05:35.883Z,67.22
2019-06-26T23:10:41.225Z,67.56
2019-06-26T23:15:46.638Z,67.93
2019-06-26T23:20:51.973Z,68.63
2019-06-26T23:25:57.475Z,69.86
2019-06-26T23:31:02.979Z,69.60
2019-06-26T23:36:08.386Z,70.24
2019-06-26T23:41:13.680Z,70.43
2019-06-26T23:46:19.313Z,70.39
2019-06-26T23:51:24.645Z,69.84
2019-06-26T23:56:40.040Z,70.14
